Terminal Aerodrome Forecast
Issued by NWS Louisville, KY

Home | Current Version | Previous Version | Text Only | Print | Product List | Glossary On
Versions: 1 2 3 4 5 6 7 8 9 10 11 12 13
632
FTUS43 KLMK 242332
TAFLEX
TAF
KLEX 242332Z 2500/2524 06005KT P6SM FEW060
     FM251000 VRB04KT 5SM BR SKC
      TEMPO 2510/2514 3SM BR
     FM251700 VRB04KT P6SM SCT050=

USA.gov is the U.S. government's official web portal to all federal, state and local government web resources and services.